Monday, December 18, 2017, 9:24 AM EST
Back to Local

KMGJ, Montgomery Orange Co Airport

Location: Montgomery, NY, United States Lat: 41.517
Local Time: 9:24 AM EST (14:24 GMT) Lon: -74.267
Time Zone: US/Eastern Elev: 354 ft

Show me the last for .
Show Decoded

2017-12-18 08:54 METAR KMGJ 181354Z AUTO 00000KT 10SM OVC011 M02/M07 A3010 RMK AO2 SLP197
                 T10171067 =
2017-12-18 07:54 METAR KMGJ 181254Z AUTO 17003KT 10SM OVC012 M02/M07 A3011 RMK AO2 SLP200
                 T10221067 =
2017-12-18 07:32 METAR KMGJ 181232Z AUTO 24003KT 10SM OVC014 M02/M06 A3012 RMK AO2 T10221061 =
2017-12-18 06:54 METAR KMGJ 181154Z AUTO 00000KT 10SM OVC015 M02/M07 A3012 RMK AO2 SLP204
                 T10221067 11022 21033 56005 =
2017-12-18 05:54 METAR KMGJ 181054Z AUTO 00000KT 10SM OVC016 M02/M07 A3012 RMK AO2 SLP204
                 T10221072 =
2017-12-18 04:54 METAR KMGJ 180954Z AUTO 00000KT 10SM OVC015 M03/M07 A3013 RMK AO2 SLP206
                 T10281072 =
2017-12-18 03:54 METAR KMGJ 180854Z AUTO 04003KT 10SM OVC016 M03/M08 A3014 RMK AO2 SLP210
                 T10281078 58013 =
2017-12-18 02:54 METAR KMGJ 180754Z AUTO 00000KT 10SM OVC016 M03/M08 A3016 RMK AO2 SLP219
                 T10281078 =
2017-12-18 01:54 METAR KMGJ 180654Z AUTO 00000KT 10SM OVC017 M03/M08 A3016 RMK AO2 SLP219
                 T10281078 =
2017-12-18 00:54 METAR KMGJ 180554Z AUTO 00000KT 10SM OVC017 M03/M08 A3017 RMK AO2 SLP223
                 T10281083 11028 21033 56011 =
2017-12-17 23:54 METAR KMGJ 180454Z AUTO 00000KT 10SM BKN019 OVC055 M03/M08 A3019 RMK AO2 SLP226
                 T10331083 400001050 =
2017-12-17 23:52 METAR KMGJ 180452Z AUTO 00000KT 10SM BKN019 OVC055 M03/M08 A3018 RMK AO2 =
2017-12-17 22:54 METAR KMGJ 180354Z AUTO 02006KT 10SM OVC060 M03/M08 A3021 RMK AO2 SLP234
                 T10331083 =
2017-12-17 21:54 METAR KMGJ 180254Z AUTO 01005KT 10SM CLR M03/M08 A3021 RMK AO2 SLP236 T10331083
                 58008 =
2017-12-17 20:54 METAR KMGJ 180154Z AUTO 01005KT 10SM BKN120 M03/M08 A3023 RMK AO2 SLP242
                 T10331083 =
2017-12-17 19:54 METAR KMGJ 180054Z AUTO 02004KT 10SM SCT120 M03/M07 A3024 RMK AO2 SLP245
                 T10281072 =
2017-12-17 18:54 METAR KMGJ 172354Z AUTO 35004KT 10SM FEW120 M03/M07 A3024 RMK AO2 SLP244
                 T10281072 10000 21028 51008 =
2017-12-17 18:31 METAR KMGJ 172331Z AUTO 06003KT 10SM SCT029 M02/M07 A3023 RMK AO2 T10221072 =
2017-12-17 17:54 METAR KMGJ 172254Z AUTO 02005KT 10SM OVC029 M02/M07 A3024 RMK AO2 SLP243
                 T10221072 =
2017-12-17 16:54 METAR KMGJ 172154Z AUTO 04004KT 10SM CLR M02/M07 A3022 RMK AO2 SLP238 T10221072
                 =
2017-12-17 15:54 METAR KMGJ 172054Z AUTO 07004KT 10SM CLR M01/M06 A3021 RMK AO2 SLP235 T10061061
                 55005 =
2017-12-17 14:54 METAR KMGJ 171954Z AUTO 05004KT 10SM FEW055 M01/M07 A3021 RMK AO2 SLP234
                 T10061067 =
2017-12-17 13:54 METAR KMGJ 171854Z AUTO 21004KT 10SM OVC055 M01/M06 A3021 RMK AO2 SLP234
                 T10061061 =
2017-12-17 12:54 METAR KMGJ 171754Z AUTO 00000KT 10SM OVC055 M01/M07 A3023 RMK AO2 SLP240
                 T10061067 11006 21050 58014 =
2017-12-17 11:54 METAR KMGJ 171654Z AUTO 00000KT 10SM OVC055 M01/M07 A3025 RMK AO2 SLP248
                 T10111072 =
2017-12-17 10:54 METAR KMGJ 171554Z AUTO 00000KT 10SM OVC055 M02/M07 A3027 RMK AO2 SLP253
                 T10171072 =
2017-12-17 09:54 METAR KMGJ 171454Z AUTO 00000KT 10SM OVC055 M02/M08 A3027 RMK AO2 SLP255
                 T10171078 51012 =

Support USWX by starting your Amazon purchase here.